Time;durP1;ratioP1;P1;durP2;ratioP2;P2;SDS_P1;SDS_P2;PMS_P1;PMS_P2;Temp;Humidity;BMP_temperature;BMP_pressure;BME280_temperature;BME280_humidity;BME280_pressure;Samples;Min_cycle;Max_cycle;Signal;HPM_P1;HPM_P2
2022/09/04 00:02:21;;;;;;;5.17;1.00;;;;;;;15.00;61.60;101261.15;5132610;57;1141152;-69
2022/09/04 00:07:48;;;;;;;4.97;1.13;;;;;;;14.89;62.17;101261.22;5129053;57;1139012;-70
2022/09/04 00:13:09;;;;;;;1.17;1.03;;;;;;;14.88;62.34;101264.85;5156814;56;1136843;-66
2022/09/04 00:18:25;;;;;;;8.20;1.40;;;;;;;14.88;62.64;101258.67;5208868;56;1137103;-64
2022/09/04 00:23:41;;;;;;;3.20;1.60;;;;;;;14.83;62.78;101249.73;5222104;56;1137032;-67
2022/09/04 00:28:57;;;;;;;1.80;1.43;;;;;;;14.79;62.90;101250.98;5221552;56;1137072;-69
2022/09/04 00:34:42;;;;;;;2.30;0.83;;;;;;;14.73;62.92;101252.81;5189038;56;1137191;-71
2022/09/04 00:39:55;;;;;;;2.50;1.47;;;;;;;14.68;63.21;101257.67;5154660;56;1139053;-71
2022/09/04 00:45:29;;;;;;;1.50;1.27;;;;;;;14.54;63.75;101260.63;5182773;56;1139038;-71
2022/09/04 00:50:58;;;;;;;1.73;1.23;;;;;;;14.49;63.87;101264.17;5166976;56;1139229;-68
2022/09/04 00:56:09;;;;;;;2.10;1.43;;;;;;;14.24;64.43;101249.31;5178730;56;1139002;-68
2022/09/04 01:01:22;;;;;;;1.43;1.33;;;;;;;14.24;64.43;101249.31;5156363;56;1139648;-68
2022/09/04 01:06:50;;;;;;;3.63;1.20;;;;;;;14.24;64.99;101252.82;5156244;56;1139092;-67
2022/09/04 01:12:27;;;;;;;1.80;1.57;;;;;;;14.23;64.93;101255.13;5172990;56;1139144;-65
2022/09/04 01:18:01;;;;;;;2.40;1.20;;;;;;;14.15;65.45;101251.41;5208698;56;1139371;-66
2022/09/04 01:23:43;;;;;;;5.03;1.77;;;;;;;14.12;65.71;101250.31;5219586;56;1136939;-71
2022/09/04 01:29:25;;;;;;;3.73;1.60;;;;;;;14.07;65.51;101253.34;5219551;56;1136997;-70
2022/09/04 01:34:58;;;;;;;3.90;1.50;;;;;;;13.92;66.02;101247.44;5176342;56;1135100;-70
2022/09/04 01:40:36;;;;;;;7.93;1.20;;;;;;;13.82;66.47;101251.80;5194789;56;1139029;-66
2022/09/04 01:46:15;;;;;;;4.10;1.53;;;;;;;13.72;66.71;101251.70;5141890;56;1139265;-66
2022/09/04 01:52:01;;;;;;;3.13;1.10;;;;;;;13.58;67.80;101255.93;5183426;56;1139136;-71
2022/09/04 01:57:20;;;;;;;3.27;1.60;;;;;;;13.51;67.99;101260.02;5189679;55;1138990;-72
2022/09/04 02:02:53;;;;;;;5.07;1.50;;;;;;;13.45;68.14;101264.95;5167579;56;1139352;-70
2022/09/04 02:08:16;;;;;;;12.60;1.97;;;;;;;13.41;68.49;101258.20;5159030;56;1138967;-64
2022/09/04 02:14:03;;;;;;;10.33;1.67;;;;;;;13.43;68.66;101265.10;5194988;56;1139551;-69
2022/09/04 02:19:25;;;;;;;4.43;2.30;;;;;;;13.45;68.65;101267.61;5209466;56;1138999;-68
2022/09/04 02:24:38;;;;;;;2.13;1.60;;;;;;;13.43;69.11;101258.94;5200784;56;1136878;-71
2022/09/04 02:30:10;;;;;;;5.93;1.40;;;;;;;13.37;69.23;101261.58;5134226;57;1135135;-68
2022/09/04 02:35:30;;;;;;;2.07;1.30;;;;;;;13.34;70.01;101269.78;5129845;57;1139344;-68
2022/09/04 02:41:07;;;;;;;3.90;1.40;;;;;;;13.28;69.63;101268.46;5184382;56;1138945;-66
2022/09/04 02:46:30;;;;;;;2.07;1.63;;;;;;;13.25;70.00;101258.55;5114998;57;1139068;-69
2022/09/04 02:52:24;;;;;;;1.90;1.50;;;;;;;13.16;71.02;101257.91;5073987;57;1138978;-69
2022/09/04 02:57:53;;;;;;;2.67;1.90;;;;;;;13.01;71.21;101267.86;5134361;57;1139072;-66
2022/09/04 03:03:02;;;;;;;3.03;1.43;;;;;;;12.96;71.32;101271.36;5133908;57;1139392;-69
2022/09/04 03:08:24;;;;;;;3.70;2.20;;;;;;;12.91;71.84;101278.81;5103431;57;1139187;-70
2022/09/04 03:13:37;;;;;;;2.87;1.30;;;;;;;12.88;72.72;101277.23;5142478;57;1137254;-68
2022/09/04 03:19:24;;;;;;;3.33;1.97;;;;;;;12.91;72.63;101265.55;5206251;56;1136939;-67
2022/09/04 03:24:54;;;;;;;7.23;2.03;;;;;;;12.91;73.35;101261.56;5219801;56;1137199;-71
2022/09/04 03:30:11;;;;;;;2.65;1.70;;;;;;;12.89;73.25;101256.84;5231119;56;1138973;-68
2022/09/04 03:35:31;;;;;;;3.70;1.60;;;;;;;12.80;73.52;101258.39;5150211;56;1139094;-70
2022/09/04 03:41:03;;;;;;;2.53;2.03;;;;;;;12.76;73.76;101264.04;5220102;56;1139089;-70
2022/09/04 03:46:41;;;;;;;5.43;2.00;;;;;;;12.69;73.98;101267.62;5156604;56;1138970;-67
2022/09/04 03:52:35;;;;;;;4.67;2.10;;;;;;;12.57;73.81;101272.52;5118938;56;1139041;-71
2022/09/04 03:58:09;;;;;;;3.97;2.03;;;;;;;12.44;74.40;101277.88;5038474;57;1139059;-64
2022/09/04 04:03:20;;;;;;;11.17;2.30;;;;;;;12.30;74.72;101276.24;5133982;57;1139094;-65
2022/09/04 04:09:02;;;;;;;11.33;1.90;;;;;;;12.17;75.76;101281.22;5129999;57;1141332;-70
2022/09/04 04:14:36;;;;;;;6.30;2.00;;;;;;;12.15;75.86;101286.62;5142448;57;1139074;-70
2022/09/04 04:19:54;;;;;;;5.20;2.00;;;;;;;12.13;76.10;101281.91;5210469;56;1137009;-72
2022/09/04 04:25:13;;;;;;;3.73;1.93;;;;;;;12.19;76.58;101293.89;5136723;56;1137065;-66
2022/09/04 04:30:21;;;;;;;5.27;3.00;;;;;;;12.17;76.59;101296.66;5089312;56;1139206;-68
2022/09/04 04:35:37;;;;;;;9.47;2.17;;;;;;;12.16;76.29;101294.95;5083364;57;1139055;-66
2022/09/04 04:41:20;;;;;;;2.27;1.63;;;;;;;12.15;76.79;101298.56;5154016;57;1139030;-66
2022/09/04 04:46:46;;;;;;;9.23;1.93;;;;;;;12.16;77.03;101304.23;5160558;57;1139040;-67
2022/09/04 04:52:25;;;;;;;6.07;1.83;;;;;;;12.22;77.00;101306.43;5159429;57;1139209;-71
2022/09/04 04:58:02;;;;;;;3.27;2.10;;;;;;;12.23;77.16;101306.80;5160580;57;1139272;-65
2022/09/04 05:03:31;;;;;;;2.43;1.83;;;;;;;12.23;77.69;101325.37;5156998;57;1139164;-68
2022/09/04 05:08:47;;;;;;;15.13;2.60;;;;;;;12.28;77.65;101328.55;5155784;57;1139173;-69
2022/09/04 05:14:39;;;;;;;8.30;1.93;;;;;;;12.32;77.59;101342.45;5160363;57;1139304;-66
2022/09/04 05:20:22;;;;;;;2.63;1.90;;;;;;;12.37;77.42;101345.63;5160622;57;1137002;-66
2022/09/04 05:25:38;;;;;;;8.63;2.47;;;;;;;12.39;77.87;101348.98;5155717;57;1138988;-66
2022/09/04 05:31:08;;;;;;;4.30;2.08;;;;;;;12.44;78.60;101344.20;5238242;56;1139349;-68
2022/09/04 05:36:18;;;;;;;5.63;2.57;;;;;;;12.48;78.49;101345.69;5223572;56;1138981;-68
2022/09/04 05:42:03;;;;;;;6.40;2.47;;;;;;;12.52;79.25;101350.30;5186346;56;1139050;-66
2022/09/04 05:47:26;;;;;;;3.53;2.30;;;;;;;12.63;79.68;101357.84;5100288;57;1139126;-68
2022/09/04 05:52:44;;;;;;;3.13;2.10;;;;;;;12.86;79.89;101360.61;5076339;56;1139198;-66
2022/09/04 05:58:16;;;;;;;8.30;2.83;;;;;;;13.11;79.38;101365.81;5035904;57;1139324;-68
2022/09/04 06:03:57;;;;;;;9.27;2.40;;;;;;;13.36;79.51;101364.36;5023554;57;1138903;-73
2022/09/04 06:09:35;;;;;;;2.97;2.40;;;;;;;13.61;79.08;101367.78;5047957;57;1137265;-66
2022/09/04 06:15:02;;;;;;;3.60;2.57;;;;;;;13.80;78.41;101377.86;5077476;57;1136999;-74
2022/09/04 06:20:21;;;;;;;12.20;3.20;;;;;;;14.05;78.23;101385.13;5114037;56;1136948;-70
2022/09/04 06:25:53;;;;;;;5.57;2.73;;;;;;;14.25;77.52;101383.56;5095489;57;1137130;-68
2022/09/04 06:31:17;;;;;;;12.03;3.97;;;;;;;14.41;77.26;101385.88;5089244;57;1139529;-70
2022/09/04 06:36:38;;;;;;;4.30;3.13;;;;;;;14.64;77.02;101389.37;5122246;56;1141117;-68
2022/09/04 06:42:05;;;;;;;8.87;2.83;;;;;;;14.81;76.21;101393.34;5141921;56;1139269;-72
2022/09/04 06:47:17;;;;;;;3.72;2.67;;;;;;;15.03;75.99;101395.44;5242898;55;1139054;-67
2022/09/04 06:52:58;;;;;;;3.03;2.43;;;;;;;15.16;75.80;101401.92;5231132;55;1138983;-70
2022/09/04 06:58:28;;;;;;;3.03;2.70;;;;;;;15.39;75.39;101401.36;5155902;56;1139351;-74
2022/09/04 07:04:14;;;;;;;6.60;2.90;;;;;;;15.67;75.32;101410.56;5153301;57;1139494;-66
2022/09/04 07:09:42;;;;;;;10.60;3.83;;;;;;;15.81;74.64;101407.08;5140672;57;1137601;-67
2022/09/04 07:15:19;;;;;;;6.43;3.30;;;;;;;16.17;73.19;101410.23;5124760;57;1138885;-72
2022/09/04 07:21:08;;;;;;;5.23;3.47;;;;;;;16.47;73.39;101409.38;5070871;57;1137177;-64
2022/09/04 07:26:36;;;;;;;4.07;3.23;;;;;;;16.77;73.44;101416.52;5154531;57;1139101;-71
2022/09/04 07:32:08;;;;;;;3.64;3.28;;;;;;;16.95;72.02;101420.71;5163809;57;1139161;-69
2022/09/04 07:37:42;;;;;;;7.83;3.70;;;;;;;17.06;71.69;101427.26;5139314;56;1139400;-71
2022/09/04 07:43:09;;;;;;;6.43;3.40;;;;;;;17.31;71.62;101436.55;5141089;56;1139022;-68
2022/09/04 07:48:40;;;;;;;5.87;3.77;;;;;;;17.51;71.16;101425.73;5116987;56;1139265;-68
2022/09/04 07:54:16;;;;;;;7.43;4.33;;;;;;;17.73;70.60;101430.44;5045269;57;1139399;-69
2022/09/04 07:59:35;;;;;;;6.53;3.27;;;;;;;18.07;69.95;101436.15;5012271;57;1137006;-68
2022/09/04 08:05:06;;;;;;;4.57;2.53;;;;;;;18.35;69.04;101440.56;5063632;57;1136593;-67
2022/09/04 08:10:31;;;;;;;11.17;3.90;;;;;;;18.51;68.20;101443.45;5072641;57;1137002;-68
2022/09/04 08:15:59;;;;;;;5.03;3.57;;;;;;;18.69;68.98;101448.91;5026352;57;1139154;-70
2022/09/04 08:21:12;;;;;;;4.37;3.33;;;;;;;18.88;67.36;101465.39;5067247;57;1139026;-69
2022/09/04 08:26:37;;;;;;;12.90;5.00;;;;;;;19.15;68.06;101458.65;5042610;57;1139037;-71
2022/09/04 08:32:14;;;;;;;4.95;4.10;;;;;;;19.33;66.49;101455.48;5040888;57;1141213;-67
2022/09/04 08:37:35;;;;;;;3.37;2.70;;;;;;;19.45;66.62;101465.98;5139758;56;1139027;-72
2022/09/04 08:42:46;;;;;;;4.28;3.62;;;;;;;19.71;65.37;101472.80;5181115;56;1139267;-72
2022/09/04 08:48:11;;;;;;;7.37;3.20;;;;;;;19.71;65.37;101472.80;5173793;56;1139018;-71
2022/09/04 08:54:01;;;;;;;5.08;3.08;;;;;;;19.83;65.40;101471.06;5171836;56;1139186;-71
2022/09/04 08:59:44;;;;;;;6.00;3.35;;;;;;;20.05;65.15;101468.84;5219466;56;1139080;-72
2022/09/04 09:04:58;;;;;;;8.80;3.70;;;;;;;20.25;63.96;101471.17;5190908;56;1137028;-70
2022/09/04 09:10:39;;;;;;;4.90;3.20;;;;;;;20.44;62.66;101476.88;5165273;56;1136931;-67
2022/09/04 09:16:12;;;;;;;5.50;3.10;;;;;;;20.59;63.85;101471.23;5182815;56;1137001;-65
2022/09/04 09:21:48;;;;;;;2.78;2.58;;;;;;;20.78;62.30;101466.61;5176174;56;1139075;-70
2022/09/04 09:27:44;;;;;;;3.70;2.77;;;;;;;20.92;61.63;101474.06;5174184;56;1139013;-67
2022/09/04 09:33:26;;;;;;;9.15;3.17;;;;;;;21.16;62.32;101473.27;5179095;56;1139122;-73
2022/09/04 09:38:47;;;;;;;13.55;4.12;;;;;;;21.49;60.94;101482.28;5134805;57;1139042;-68
2022/09/04 09:44:16;;;;;;;4.00;2.70;;;;;;;21.66;59.32;101479.95;5164167;56;1141094;-71
2022/09/04 09:49:48;;;;;;;3.17;2.58;;;;;;;21.73;59.14;101474.20;5221785;56;1139062;-66
2022/09/04 09:55:40;;;;;;;5.47;3.02;;;;;;;21.89;59.05;101476.05;5221766;56;1136973;-69
2022/09/04 10:01:11;;;;;;;4.42;3.22;;;;;;;22.32;56.58;101481.07;5221745;56;1136832;-65
2022/09/04 10:06:33;;;;;;;10.40;2.72;;;;;;;22.32;56.58;101481.07;5221811;56;1134869;-64
2022/09/04 10:12:27;;;;;;;5.57;2.97;;;;;;;22.43;56.38;101474.49;5067681;57;1141215;-68
2022/09/04 10:17:58;;;;;;;4.60;2.95;;;;;;;22.47;55.06;101477.16;5066614;57;1139141;-67
2022/09/04 10:23:50;;;;;;;15.20;2.60;;;;;;;22.59;53.77;101467.70;5057552;57;1139234;-66
2022/09/04 10:29:27;;;;;;;14.80;3.62;;;;;;;22.70;54.56;101457.03;5128191;57;1141105;-67
2022/09/04 10:35:26;;;;;;;4.17;2.92;;;;;;;22.32;53.51;101460.02;5133501;56;1141212;-68
2022/09/04 10:41:10;;;;;;;7.40;3.20;;;;;;;22.25;54.10;101449.61;5152505;56;1137157;-70
2022/09/04 10:46:24;;;;;;;4.75;3.30;;;;;;;22.18;53.35;101454.83;5127181;57;1136935;-67
2022/09/04 10:51:40;;;;;;;5.53;2.90;;;;;;;22.19;52.35;101454.32;5145663;57;21222;-66
2022/09/04 10:57:05;;;;;;;10.27;3.60;;;;;;;22.01;52.36;101461.25;5185604;57;1134776;-65
2022/09/04 11:02:52;;;;;;;8.98;2.75;;;;;;;21.97;51.11;101458.05;5169319;56;1141114;-71
2022/09/04 11:08:34;;;;;;;12.18;3.45;;;;;;;21.94;50.76;101454.84;5216051;56;1139205;-67
2022/09/04 11:14:30;;;;;;;5.15;2.80;;;;;;;21.93;51.37;101454.01;5174240;56;1141327;-67
2022/09/04 11:20:17;;;;;;;6.67;3.20;;;;;;;21.93;48.61;101460.73;5165649;56;1139047;-66
2022/09/04 11:26:04;;;;;;;7.72;3.25;;;;;;;22.09;49.41;101448.62;5171340;56;1137149;-69
2022/09/04 11:31:29;;;;;;;2.58;2.37;;;;;;;22.42;47.31;101452.59;5207336;56;1136922;-69
2022/09/04 11:37:03;;;;;;;9.58;3.02;;;;;;;22.51;47.33;101446.14;5175439;56;1134934;-71
2022/09/04 11:42:38;;;;;;;4.33;2.27;;;;;;;22.63;42.42;101440.70;5178074;56;1139070;-70
2022/09/04 11:48:10;;;;;;;3.60;2.80;;;;;;;22.51;43.84;101444.80;5186168;56;1139042;-67
2022/09/04 11:53:43;;;;;;;6.90;3.20;;;;;;;22.58;43.87;101444.45;5156644;56;1139182;-70
2022/09/04 11:58:52;;;;;;;;;;;;;;;22.75;42.87;101450.11;5217929;55;1139034;-70
2022/09/04 12:04:22;;;;;;;11.68;2.75;;;;;;;22.57;41.82;101445.46;5221180;56;976567;-68
2022/09/04 12:09:48;;;;;;;4.10;2.98;;;;;;;22.52;43.37;101446.98;5204782;56;1138335;-68
2022/09/04 12:15:32;;;;;;;9.50;3.45;;;;;;;22.68;45.15;101442.88;5179793;56;1139053;-70
2022/09/04 12:21:00;;;;;;;4.15;2.87;;;;;;;23.04;41.56;101448.13;5205664;56;1137146;-68
2022/09/04 12:26:39;;;;;;;9.23;3.12;;;;;;;23.18;39.54;101442.47;5168924;56;1137072;-68
2022/09/04 12:32:25;;;;;;;8.08;2.98;;;;;;;23.09;40.39;101438.13;5142047;56;1134920;-69
2022/09/04 12:38:25;;;;;;;4.45;2.98;;;;;;;23.08;40.70;101426.49;5135824;57;1139044;-71
2022/09/04 12:43:47;;;;;;;4.05;3.45;;;;;;;23.00;40.85;101436.51;5187756;56;1139175;-71
2022/09/04 12:49:27;;;;;;;13.03;3.03;;;;;;;23.13;43.05;101431.36;5279202;55;1139027;-70
2022/09/04 12:54:50;;;;;;;6.28;3.22;;;;;;;23.49;40.36;101439.20;5294522;55;1141202;-67
2022/09/04 13:00:11;;;;;;;11.08;3.45;;;;;;;23.52;41.60;101442.61;5302360;55;1139188;-70
2022/09/04 13:05:33;;;;;;;8.73;3.17;;;;;;;23.77;40.84;101437.31;5311071;55;1141182;-70
2022/09/04 13:10:59;;;;;;;7.17;2.75;;;;;;;23.77;40.84;101437.31;5310477;55;1137189;-67
2022/09/04 13:16:26;;;;;;;2.92;2.65;;;;;;;23.80;41.19;101441.00;5260194;55;1136969;-68
2022/09/04 13:22:16;;;;;;;15.00;3.40;;;;;;;23.67;40.69;101439.44;5281512;55;1136966;-68
2022/09/04 13:27:35;;;;;;;5.10;3.08;;;;;;;23.44;41.01;101442.95;5254104;55;1141061;-72
2022/09/04 13:33:05;;;;;;;3.20;2.62;;;;;;;23.36;40.88;101440.84;5217949;56;1139002;-70
2022/09/04 13:38:47;;;;;;;9.58;2.72;;;;;;;23.40;42.22;101433.52;5221627;56;1139303;-74
2022/09/04 13:44:50;;;;;;;11.18;3.08;;;;;;;23.53;39.99;101445.09;5270780;55;1139627;-68
2022/09/04 13:50:21;;;;;;;6.70;3.12;;;;;;;23.64;41.43;101447.39;5311121;55;1141052;-69
2022/09/04 13:55:38;;;;;;;6.10;2.60;;;;;;;23.52;41.21;101455.59;5308703;55;1139110;-69
2022/09/04 14:00:48;;;;;;;4.05;3.35;;;;;;;23.28;41.20;101440.37;5293178;55;1137035;-70
2022/09/04 14:05:54;;;;;;;7.10;2.60;;;;;;;23.20;40.66;101449.89;5255468;55;1137033;-70
2022/09/04 14:11:22;;;;;;;6.33;2.22;;;;;;;23.27;41.26;101444.09;5255062;55;1137201;-66
2022/09/04 14:16:31;;;;;;;9.65;3.75;;;;;;;23.49;41.74;101448.66;5253942;55;1137232;-70
2022/09/04 14:22:04;;;;;;;3.67;2.30;;;;;;;23.75;41.75;101444.75;5231184;55;1137243;-69
2022/09/04 14:27:58;;;;;;;8.10;3.27;;;;;;;23.85;40.26;101453.44;5222506;56;1134969;-70
2022/09/04 14:33:29;;;;;;;6.78;3.15;;;;;;;23.65;40.38;101454.98;5233612;56;1139055;-73
2022/09/04 14:38:55;;;;;;;7.08;2.72;;;;;;;23.65;40.38;101454.98;5254675;55;1138666;-70
2022/09/04 14:44:41;;;;;;;6.55;3.05;;;;;;;23.36;40.16;101455.69;5258354;55;1139231;-66
2022/09/04 14:49:49;;;;;;;5.28;2.72;;;;;;;23.07;40.59;101453.66;5250388;55;1138954;-71
2022/09/04 14:55:00;;;;;;;6.85;2.98;;;;;;;23.07;40.59;101453.66;5212380;55;1138997;-66
2022/09/04 15:00:21;;;;;;;5.28;3.00;;;;;;;23.12;40.60;101459.36;5250865;55;1139046;-73
2022/09/04 15:05:55;;;;;;;3.60;2.90;;;;;;;23.20;41.36;101456.63;5255714;55;1139057;-69
2022/09/04 15:11:07;;;;;;;3.92;2.83;;;;;;;23.37;41.67;101454.16;5264791;55;1137206;-68
2022/09/04 15:16:34;;;;;;;10.55;3.42;;;;;;;23.42;41.46;101460.34;5229164;55;1136959;-69
2022/09/04 15:22:31;;;;;;;11.28;3.22;;;;;;;23.30;41.84;101456.39;5250303;55;1139154;-67
2022/09/04 15:28:04;;;;;;;8.80;3.60;;;;;;;23.14;42.09;101464.08;5257151;55;1141085;-73
2022/09/04 15:33:11;;;;;;;;;;;;;;;22.96;42.18;101464.85;5271231;55;1139048;-70
2022/09/04 15:38:25;;;;;;;5.37;3.27;;;;;;;22.95;41.92;101473.45;5313554;55;976425;-66
2022/09/04 15:43:47;;;;;;;11.70;3.15;;;;;;;22.93;41.37;101482.23;5267101;55;1136945;-70
2022/09/04 15:49:22;;;;;;;17.98;3.58;;;;;;;22.77;41.25;101476.40;5266120;55;1141067;-71
2022/09/04 15:54:48;;;;;;;14.23;3.05;;;;;;;22.68;41.35;101477.43;5219692;56;1141236;-71
2022/09/04 16:00:04;;;;;;;9.18;3.20;;;;;;;22.68;42.64;101479.28;5218375;56;1140822;-71
2022/09/04 16:05:24;;;;;;;6.97;3.10;;;;;;;22.69;42.00;101478.27;5079675;57;1139071;-70
2022/09/04 16:10:42;;;;;;;7.78;3.33;;;;;;;22.63;42.02;101478.95;4998655;58;1139110;-69
2022/09/04 16:15:49;;;;;;;8.90;2.58;;;;;;;22.63;42.02;101478.95;5060598;57;1139311;-68
2022/09/04 16:21:01;;;;;;;3.15;2.30;;;;;;;22.63;41.38;101479.80;5080002;57;1139377;-72
2022/09/04 16:26:18;;;;;;;6.45;2.95;;;;;;;22.60;41.40;101483.38;5129645;56;1137122;-71
2022/09/04 16:31:38;;;;;;;7.72;2.33;;;;;;;22.51;41.53;101486.59;5135880;57;1137150;-70
2022/09/04 16:36:51;;;;;;;6.42;2.77;;;;;;;22.46;41.90;101490.30;5143090;56;1137002;-67
2022/09/04 16:42:27;;;;;;;14.15;9.78;;;;;;;22.44;42.08;101491.00;5115634;56;1136984;-69
2022/09/04 16:47:46;;;;;;;18.00;8.35;;;;;;;22.43;42.26;101492.86;4990432;58;1139232;-71
2022/09/04 16:53:19;;;;;;;14.33;9.20;;;;;;;22.40;42.47;101497.75;4776483;59;1141321;-69
2022/09/04 16:58:58;;;;;;;14.50;5.87;;;;;;;22.29;43.00;101498.12;4899244;60;1141153;-66
2022/09/04 17:04:22;;;;;;;21.48;7.53;;;;;;;22.20;43.29;101510.74;4981154;59;1141143;-67
2022/09/04 17:09:47;;;;;;;35.00;8.10;;;;;;;22.08;43.62;101517.50;4981244;59;1141393;-68
2022/09/04 17:15:09;;;;;;;10.18;3.40;;;;;;;21.93;44.47;101523.20;4889078;59;1141204;-68
2022/09/04 17:20:38;;;;;;;20.00;4.17;;;;;;;21.76;44.80;101522.34;4901542;59;1141167;-68
2022/09/04 17:26:21;;;;;;;26.07;6.47;;;;;;;21.61;45.47;101529.40;5061209;58;1141366;-70
2022/09/04 17:31:46;;;;;;;23.62;6.10;;;;;;;21.49;45.70;101536.95;5136061;57;1139039;-70
2022/09/04 17:37:00;;;;;;;27.95;8.63;;;;;;;21.36;45.82;101547.36;5293764;55;1138946;-70
2022/09/04 17:42:28;;;;;;;14.70;5.12;;;;;;;21.18;46.32;101547.94;5271348;55;1139079;-69
2022/09/04 17:47:48;;;;;;;15.25;3.70;;;;;;;20.99;47.05;101557.11;5217428;56;1139048;-69
2022/09/04 17:53:06;;;;;;;19.17;5.20;;;;;;;20.82;47.46;101572.81;5217004;55;1139021;-65
2022/09/04 17:58:49;;;;;;;16.20;5.33;;;;;;;20.71;47.61;101584.70;5290045;55;1141114;-68
2022/09/04 18:04:49;;;;;;;24.17;7.20;;;;;;;20.52;48.00;101587.09;5224318;55;1140560;-67
2022/09/04 18:10:22;;;;;;;20.15;8.33;;;;;;;20.41;48.03;101588.70;5219426;56;1141153;-69
2022/09/04 18:15:38;;;;;;;6.47;4.03;;;;;;;20.25;48.94;101600.13;5229901;55;1141133;-70
2022/09/04 18:20:56;;;;;;;22.85;4.35;;;;;;;20.08;49.01;101606.36;5288880;55;1139223;-67
2022/09/04 18:26:26;;;;;;;20.48;4.12;;;;;;;19.98;49.41;101605.11;5307939;55;1141344;-69
2022/09/04 18:31:51;;;;;;;30.17;4.78;;;;;;;19.93;49.51;101617.29;5241342;55;1138989;-71
2022/09/04 18:37:25;;;;;;;15.58;3.33;;;;;;;19.90;49.78;101624.30;5273743;55;1139055;-67
2022/09/04 18:42:48;;;;;;;10.80;4.92;;;;;;;19.77;49.76;101627.86;5296166;55;1139012;-68
2022/09/04 18:47:57;;;;;;;12.23;4.80;;;;;;;19.58;50.08;101639.55;5235378;56;1139282;-70
2022/09/04 18:53:17;;;;;;;11.48;5.60;;;;;;;19.45;50.47;101650.61;5243198;55;1137020;-68
2022/09/04 18:58:45;;;;;;;20.93;8.27;;;;;;;19.40;50.90;101654.23;5309138;55;1141205;-71
2022/09/04 19:04:02;;;;;;;42.15;15.78;;;;;;;19.28;50.75;101655.42;5308215;55;1141098;-68
2022/09/04 19:09:21;;;;;;;28.42;9.04;;;;;;;19.19;50.96;101661.19;5308491;55;1143548;-69
2022/09/04 19:14:36;;;;;;;14.58;6.97;;;;;;;19.04;51.22;101675.22;5247692;55;1140531;-67
2022/09/04 19:20:03;;;;;;;15.15;5.45;;;;;;;18.94;51.46;101674.73;5219680;56;1141394;-67
2022/09/04 19:25:25;;;;;;;10.58;4.05;;;;;;;18.87;51.65;101678.15;5218909;56;1141185;-68
2022/09/04 19:31:03;;;;;;;8.75;2.77;;;;;;;18.79;52.03;101674.83;5198992;55;1141143;-68
2022/09/04 19:36:39;;;;;;;7.42;2.55;;;;;;;18.67;52.22;101673.31;5240578;55;1139225;-70
2022/09/04 19:42:07;;;;;;;6.30;2.42;;;;;;;18.60;52.48;101681.09;5229654;55;1136935;-70
2022/09/04 19:47:35;;;;;;;2.90;1.90;;;;;;;18.55;52.75;101687.82;5075909;57;1137008;-70
2022/09/04 19:52:50;;;;;;;4.95;2.30;;;;;;;18.46;52.93;101692.21;5065211;57;1137161;-71
2022/09/04 19:58:15;;;;;;;4.75;1.22;;;;;;;18.34;53.25;101700.01;5033341;58;1137001;-68
2022/09/04 20:03:28;;;;;;;6.03;1.98;;;;;;;18.25;53.37;101699.03;5021115;58;1134907;-70
2022/09/04 20:08:44;;;;;;;6.80;2.70;;;;;;;18.09;53.69;101698.73;5033325;58;1139170;-66
2022/09/04 20:13:57;;;;;;;12.88;1.85;;;;;;;18.02;53.97;101705.64;5063434;57;1139400;-67
2022/09/04 20:19:13;;;;;;;8.43;1.80;;;;;;;17.91;54.12;101714.61;5105721;57;1141187;-65
2022/09/04 20:24:24;;;;;;;2.50;1.35;;;;;;;17.89;54.27;101718.41;5149592;55;1139013;-70
2022/09/04 20:29:48;;;;;;;5.25;1.52;;;;;;;17.75;54.41;101725.48;5176062;56;1138981;-68
2022/09/04 20:35:23;;;;;;;6.33;1.70;;;;;;;17.67;54.74;101723.50;5168460;56;1139023;-69
2022/09/04 20:40:44;;;;;;;2.25;1.70;;;;;;;17.55;54.80;101725.89;5155359;56;1139133;-69
2022/09/04 20:46:12;;;;;;;9.38;2.00;;;;;;;17.50;54.96;101733.47;5212443;55;1139245;-69
2022/09/04 20:51:26;;;;;;;5.28;1.72;;;;;;;17.43;55.07;101730.47;5258331;55;1139001;-67
2022/09/04 20:56:54;;;;;;;4.65;2.05;;;;;;;17.35;55.34;101736.98;5260857;55;1139414;-72
2022/09/04 21:02:27;;;;;;;9.43;3.60;;;;;;;17.32;55.43;101739.07;5280778;55;1136986;-69
2022/09/04 21:07:43;;;;;;;4.37;1.97;;;;;;;17.22;55.53;101744.38;5259911;55;1136947;-66
2022/09/04 21:12:56;;;;;;;2.75;1.55;;;;;;;17.10;56.05;101748.11;5266914;55;1136886;-70
2022/09/04 21:18:15;;;;;;;;;;;;;;;16.99;56.13;101750.83;5157144;56;1137061;-66
2022/09/04 21:23:37;;;;;;;4.37;0.93;;;;;;;16.90;56.19;101760.48;5181119;56;974289;-68
2022/09/04 21:29:11;;;;;;;3.77;1.43;;;;;;;16.77;56.36;101766.02;5187646;56;1136903;-67
2022/09/04 21:34:34;;;;;;;;;;;;;;;16.71;56.40;101765.19;5171014;56;1138915;-72
2022/09/04 21:40:13;;;;;;;6.10;2.47;;;;;;;16.70;56.48;101774.66;5186712;56;976415;-69
2022/09/04 21:45:32;;;;;;;8.63;2.07;;;;;;;16.66;56.39;101774.55;5206273;56;1136961;-69
2022/09/04 21:50:51;;;;;;;2.20;1.40;;;;;;;16.57;56.37;101776.14;5139632;56;1139077;-65
2022/09/04 21:56:22;;;;;;;3.97;1.20;;;;;;;16.50;56.55;101774.94;5167394;56;1138936;-66
2022/09/04 22:01:53;;;;;;;6.63;1.53;;;;;;;16.41;56.46;101776.56;5221507;56;1139165;-72
2022/09/04 22:07:04;;;;;;;2.07;1.30;;;;;;;16.28;56.57;101790.55;5211269;56;1139108;-68
2022/09/04 22:12:53;;;;;;;7.33;1.27;;;;;;;16.26;56.48;101789.83;5091046;56;1137240;-67
2022/09/04 22:18:03;;;;;;;7.47;2.93;;;;;;;16.20;56.52;101787.64;5066700;58;1137141;-67
2022/09/04 22:23:30;;;;;;;7.03;2.83;;;;;;;16.10;56.45;101796.04;5066606;58;1137225;-68
2022/09/04 22:29:10;;;;;;;14.17;4.50;;;;;;;16.06;56.48;101799.44;5065802;57;1137222;-69
2022/09/04 22:34:53;;;;;;;11.07;4.47;;;;;;;16.04;56.45;101794.70;5094119;56;1141168;-66
2022/09/04 22:40:19;;;;;;;12.33;4.37;;;;;;;15.94;56.32;101796.42;5210783;56;1141038;-68
2022/09/04 22:46:04;;;;;;;8.87;3.50;;;;;;;15.88;56.49;101800.08;5209824;56;1141129;-69
2022/09/04 22:51:38;;;;;;;9.33;3.40;;;;;;;15.76;56.38;101801.88;5208672;56;1139600;-69
2022/09/04 22:57:34;;;;;;;3.43;1.70;;;;;;;15.68;56.37;101805.17;5227890;55;1138948;-66
2022/09/04 23:03:04;;;;;;;5.17;2.80;;;;;;;15.44;56.62;101807.88;5219467;56;1137074;-69
2022/09/04 23:08:54;;;;;;;4.33;2.03;;;;;;;15.37;57.04;101804.00;5208577;56;1137347;-68
2022/09/04 23:14:20;;;;;;;2.80;2.07;;;;;;;15.27;57.15;101808.36;5219519;56;1135215;-67
2022/09/04 23:19:54;;;;;;;4.03;1.10;;;;;;;15.18;57.38;101810.86;5214616;56;1139066;-66
2022/09/04 23:25:09;;;;;;;1.40;1.30;;;;;;;15.05;57.53;101799.81;5207728;55;1139102;-67
2022/09/04 23:30:24;;;;;;;5.50;2.10;;;;;;;15.01;57.65;101806.81;5219756;56;1139292;-64
2022/09/04 23:36:01;;;;;;;1.80;1.17;;;;;;;15.01;57.66;101810.33;5219605;56;1139157;-67
2022/09/04 23:42:10;;;;;;;2.90;1.23;;;;;;;14.94;57.83;101811.77;5215170;56;1139120;-67
2022/09/04 23:47:59;;;;;;;3.07;1.20;;;;;;;14.87;57.98;101811.00;5135140;56;1136887;-69
2022/09/04 23:53:55;;;;;;;3.33;1.50;;;;;;;14.83;58.06;101809.52;5153181;56;1136803;-66
2022/09/04 23:59:37;;;;;;;4.38;2.00;;;;;;;14.74;58.00;101810.59;5209009;56;1138990;-68
